Time;durP1;ratioP1;P1;durP2;ratioP2;P2;SDS_P1;SDS_P2;PMS_P1;PMS_P2;Temp;Humidity;BMP_temperature;BMP_pressure;BME280_temperature;BME280_humidity;BME280_pressure;Samples;Min_cycle;Max_cycle;Signal;HPM_P1;HPM_P2
2021/05/20 02:04:47;;;;;;;25.55;19.67;;;;;;;10.40;69.67;99811.53;5112485;23;20064;-77
2021/05/20 02:07:14;;;;;;;26.83;20.65;;;;;;;10.37;69.81;99810.94;5024864;28;20111;-75
2021/05/20 02:09:41;;;;;;;23.20;19.02;;;;;;;10.41;69.75;99805.31;5026900;28;20155;-75
2021/05/20 02:12:09;;;;;;;24.45;18.83;;;;;;;10.49;69.46;99810.78;5027053;28;20041;-75
2021/05/20 02:14:36;;;;;;;30.67;21.20;;;;;;;10.54;69.30;99817.53;5009035;28;20470;-74
2021/05/20 02:17:03;;;;;;;30.83;19.48;;;;;;;10.52;69.19;99815.84;5028501;28;20054;-73
2021/05/20 02:19:29;;;;;;;24.38;18.13;;;;;;;10.46;69.40;99813.69;5029691;28;20637;-74
2021/05/20 02:21:56;;;;;;;27.77;20.02;;;;;;;10.38;69.58;99815.25;5026027;28;20049;-75
2021/05/20 02:24:23;;;;;;;30.92;22.10;;;;;;;10.25;69.99;99821.47;5026398;28;20053;-74
2021/05/20 02:26:49;;;;;;;25.80;19.75;;;;;;;10.18;70.29;99822.06;5028042;28;20073;-75
2021/05/20 02:29:16;;;;;;;29.17;20.48;;;;;;;10.18;70.11;99816.78;5025877;28;20494;-76
2021/05/20 02:31:42;;;;;;;28.50;21.05;;;;;;;10.11;70.39;99822.53;5025679;28;20128;-75
2021/05/20 02:34:08;;;;;;;27.50;21.38;;;;;;;10.04;70.60;99825.78;5026714;28;20053;-75
2021/05/20 02:40:01;;;;;;;26.23;19.90;;;;;;;9.99;70.55;99820.84;5091434;23;20045;-73
2021/05/20 02:42:27;;;;;;;27.33;18.35;;;;;;;9.95;70.51;99827.31;4989562;28;20046;-73
2021/05/20 02:44:54;;;;;;;29.48;22.55;;;;;;;9.90;70.72;99834.72;5006353;28;20148;-74
2021/05/20 02:47:20;;;;;;;29.80;20.33;;;;;;;9.90;70.63;99837.38;5006492;28;20057;-74
2021/05/20 02:49:47;;;;;;;31.48;22.05;;;;;;;9.87;70.84;99845.53;5006478;28;20050;-74
2021/05/20 02:52:13;;;;;;;32.25;22.30;;;;;;;9.82;71.04;99840.59;5004867;28;20442;-75
2021/05/20 02:54:40;;;;;;;33.72;23.00;;;;;;;9.79;70.97;99840.00;5005839;28;20054;-76
2021/05/20 02:57:08;;;;;;;27.33;22.70;;;;;;;9.79;71.14;99832.09;5007075;28;20050;-73
2021/05/20 02:59:35;;;;;;;32.90;22.50;;;;;;;9.76;71.08;99844.56;5007717;28;20050;-74
2021/05/20 03:02:04;;;;;;;30.80;25.27;;;;;;;9.75;71.03;99842.03;5005743;28;20129;-74
2021/05/20 03:04:32;;;;;;;32.42;22.02;;;;;;;9.72;71.18;99848.38;5007023;28;20046;-74
2021/05/20 03:06:59;;;;;;;31.88;23.35;;;;;;;9.72;71.11;99848.38;5005531;28;20054;-75
2021/05/20 03:09:26;;;;;;;31.05;23.42;;;;;;;9.70;71.16;99852.91;5015078;28;20096;-75
2021/05/20 03:11:53;;;;;;;35.65;25.35;;;;;;;9.69;71.36;99858.31;5015650;28;20038;-75
2021/05/20 03:14:21;;;;;;;34.00;25.65;;;;;;;9.69;71.49;99859.16;5011664;28;20133;-75
2021/05/20 03:16:48;;;;;;;31.00;22.17;;;;;;;9.70;71.36;99852.91;5010205;28;20096;-75
2021/05/20 03:19:15;;;;;;;31.65;22.42;;;;;;;9.73;71.44;99857.13;5009055;28;20514;-74
2021/05/20 03:21:41;;;;;;;30.73;22.73;;;;;;;9.73;71.35;99850.03;5009745;28;20516;-73
2021/05/20 03:24:09;;;;;;;34.65;23.27;;;;;;;9.73;71.28;99860.59;5009379;28;20049;-72
2021/05/20 03:26:36;;;;;;;34.40;24.67;;;;;;;9.75;71.29;99863.94;5009279;28;20590;-75
2021/05/20 03:29:03;;;;;;;26.52;21.67;;;;;;;9.82;71.26;99863.50;4992525;28;20049;-75
2021/05/20 03:31:31;;;;;;;33.67;22.40;;;;;;;9.88;71.05;99877.06;5009532;28;20049;-75
2021/05/20 03:33:58;;;;;;;32.63;22.58;;;;;;;9.89;70.80;99870.84;5008787;28;20474;-74
2021/05/20 03:36:24;;;;;;;28.55;20.13;;;;;;;9.91;70.82;99874.19;5007961;28;20084;-75
2021/05/20 03:38:51;;;;;;;27.92;21.20;;;;;;;9.91;70.83;99868.09;5010152;28;20054;-75
2021/05/20 03:41:17;;;;;;;28.63;22.35;;;;;;;9.93;70.59;99871.44;5008010;28;20485;-75
2021/05/20 03:43:44;;;;;;;28.08;20.77;;;;;;;9.95;70.66;99875.63;5008904;28;20413;-76
2021/05/20 03:46:10;;;;;;;27.70;21.20;;;;;;;9.96;70.55;99871.22;5009027;28;20103;-74
2021/05/20 03:48:37;;;;;;;26.92;19.35;;;;;;;9.98;70.55;99871.94;5009355;28;20108;-75
2021/05/20 03:51:04;;;;;;;26.25;18.83;;;;;;;10.04;70.15;99878.53;5009512;28;20060;-75
2021/05/20 03:53:32;;;;;;;28.88;21.45;;;;;;;10.07;70.09;99873.88;5011423;28;20056;-74
2021/05/20 03:55:59;;;;;;;28.20;19.08;;;;;;;10.09;70.09;99877.22;5008815;28;20077;-73
2021/05/20 03:58:25;;;;;;;27.60;19.75;;;;;;;10.09;69.98;99879.88;5008735;28;20076;-74
2021/05/20 04:00:51;;;;;;;27.00;21.55;;;;;;;10.08;69.73;99875.56;5008965;28;20046;-75
2021/05/20 04:03:25;;;;;;;26.58;20.50;;;;;;;10.12;69.98;99877.00;5008220;28;20545;-76
2021/05/20 04:05:54;;;;;;;31.63;22.05;;;;;;;10.14;70.08;99875.09;5007986;28;20139;-76
2021/05/20 04:08:21;;;;;;;25.42;19.67;;;;;;;10.19;69.67;99872.09;5008783;28;20060;-74
2021/05/20 04:10:48;;;;;;;22.50;18.10;;;;;;;10.24;69.42;99882.28;5008293;28;20054;-75
2021/05/20 04:13:27;;;;;;;23.70;18.17;;;;;;;10.34;69.67;99880.66;5008167;28;20614;-74
2021/05/20 04:15:53;;;;;;;28.85;17.80;;;;;;;10.38;69.13;99882.09;5008665;28;20050;-74
2021/05/20 04:18:20;;;;;;;24.60;17.60;;;;;;;10.43;69.16;99895.78;5007888;28;20058;-76
2021/05/20 04:20:46;;;;;;;26.63;18.83;;;;;;;10.50;68.66;99886.41;5007164;28;20046;-75
2021/05/20 04:23:14;;;;;;;22.77;17.45;;;;;;;10.56;68.42;99897.47;5009049;28;20050;-75
2021/05/20 04:25:41;;;;;;;21.75;17.40;;;;;;;10.66;68.21;99891.34;5008673;28;20050;-75
2021/05/20 04:28:08;;;;;;;23.52;16.30;;;;;;;10.70;67.67;99899.88;5008876;28;20057;-74
2021/05/20 04:30:35;;;;;;;20.85;15.68;;;;;;;10.80;67.35;99908.72;5008087;28;20058;-75
2021/05/20 04:33:02;;;;;;;21.25;16.38;;;;;;;10.86;67.17;99907.44;5007341;28;20056;-75
2021/05/20 04:35:28;;;;;;;19.30;15.18;;;;;;;11.32;65.99;99914.28;5007905;28;20038;-76
2021/05/20 04:37:55;;;;;;;20.67;15.40;;;;;;;12.29;63.17;99910.75;5008848;28;20054;-75
2021/05/20 04:40:24;;;;;;;19.65;16.13;;;;;;;12.94;60.44;99906.03;5009268;28;20135;-76
2021/05/20 04:42:51;;;;;;;19.13;14.27;;;;;;;13.82;58.28;99912.31;5009476;28;20119;-76
2021/05/20 04:45:18;;;;;;;18.40;15.30;;;;;;;14.14;56.47;99909.31;5009739;28;20050;-77
2021/05/20 04:47:44;;;;;;;17.45;14.32;;;;;;;14.60;55.31;99903.34;5009994;28;20054;-78
2021/05/20 04:50:12;;;;;;;21.38;14.90;;;;;;;15.06;53.88;99902.44;5010662;28;20148;-75
2021/05/20 04:52:39;;;;;;;15.68;14.00;;;;;;;15.15;52.87;99905.19;5012345;28;20046;-75
2021/05/20 04:55:07;;;;;;;15.63;13.68;;;;;;;15.27;51.92;99906.66;4999944;28;20049;-80
2021/05/20 04:57:34;;;;;;;15.32;12.52;;;;;;;15.48;51.77;99914.34;5010223;28;20140;-74
2021/05/20 05:00:01;;;;;;;16.30;12.95;;;;;;;16.02;50.80;99911.69;5008128;28;20093;-75
2021/05/20 05:02:27;;;;;;;14.10;12.07;;;;;;;16.24;49.47;99913.00;5008054;28;20038;-76
2021/05/20 05:04:54;;;;;;;17.00;12.40;;;;;;;16.13;49.27;99926.59;5010871;28;20069;-73
2021/05/20 05:07:21;;;;;;;16.45;12.52;;;;;;;16.07;48.87;99928.03;5011357;28;20544;-76
2021/05/20 05:09:47;;;;;;;13.73;11.10;;;;;;;16.12;48.60;99925.75;5008734;28;20050;-74
2021/05/20 05:12:14;;;;;;;13.00;11.57;;;;;;;16.22;48.44;99923.00;5009121;28;20052;-72
2021/05/20 05:14:41;;;;;;;12.45;11.05;;;;;;;16.15;48.04;99922.78;5008306;28;20058;-73
2021/05/20 05:17:12;;;;;;;12.15;9.98;;;;;;;16.64;47.75;99922.25;5008967;28;20649;-76
2021/05/20 05:19:38;;;;;;;13.45;10.55;;;;;;;16.35;47.82;99930.56;5008298;28;20070;-73
2021/05/20 05:22:05;;;;;;;14.88;11.13;;;;;;;16.55;47.06;99925.88;5005438;28;20168;-72
2021/05/20 05:24:32;;;;;;;12.55;9.88;;;;;;;16.86;47.46;99920.06;5007848;28;20581;-73
2021/05/20 05:26:59;;;;;;;13.27;10.05;;;;;;;17.16;46.66;99926.66;4998631;28;20046;-73
2021/05/20 05:29:26;;;;;;;13.15;9.57;;;;;;;16.92;46.66;99925.56;5006634;28;20057;-75
2021/05/20 05:31:54;;;;;;;12.88;9.15;;;;;;;17.05;46.62;99921.63;4995035;28;20050;-75
2021/05/20 05:34:23;;;;;;;12.10;10.32;;;;;;;17.26;46.13;99926.53;4987341;28;20065;-74
2021/05/20 05:36:49;;;;;;;10.05;8.30;;;;;;;17.23;46.40;99933.03;4988906;28;20069;-75
2021/05/20 05:39:16;;;;;;;13.57;8.80;;;;;;;17.26;45.66;99931.88;4985067;28;20061;-73
2021/05/20 05:41:42;;;;;;;10.38;9.38;;;;;;;17.42;45.06;99937.25;4985555;28;20054;-75
2021/05/20 05:44:11;;;;;;;10.50;8.48;;;;;;;17.13;45.50;99930.50;4984589;28;20139;-78
2021/05/20 05:46:38;;;;;;;11.15;8.52;;;;;;;17.17;45.96;99933.69;4985003;28;20039;-74
2021/05/20 05:49:13;;;;;;;13.55;9.02;;;;;;;17.02;46.20;99937.97;4984701;28;20052;-74
2021/05/20 05:51:41;;;;;;;15.52;9.65;;;;;;;16.15;48.25;99933.44;4985703;28;20050;-74
2021/05/20 05:54:08;;;;;;;10.98;8.93;;;;;;;15.30;49.56;99940.94;4992419;28;20786;-75
2021/05/20 05:56:35;;;;;;;11.38;8.35;;;;;;;14.66;51.59;99942.66;4992728;28;20450;-74
2021/05/20 05:59:01;;;;;;;10.70;8.85;;;;;;;14.28;52.57;99941.75;4991123;28;20632;-76
2021/05/20 06:01:28;;;;;;;12.88;8.25;;;;;;;14.00;52.97;99938.16;4992652;28;20061;-73
2021/05/20 06:03:55;;;;;;;11.20;8.20;;;;;;;13.80;53.66;99947.94;4993437;28;20137;-73
2021/05/20 06:06:22;;;;;;;11.57;8.63;;;;;;;13.72;54.34;99940.66;4992866;28;20671;-75
2021/05/20 06:08:49;;;;;;;10.57;9.20;;;;;;;13.62;54.50;99938.00;5008275;28;20240;-75
2021/05/20 06:11:15;;;;;;;13.27;9.18;;;;;;;13.52;55.01;99943.31;5006340;28;20115;-76
2021/05/20 06:13:42;;;;;;;9.50;7.85;;;;;;;13.52;55.03;99937.16;5005236;28;20046;-75
2021/05/20 06:16:09;;;;;;;11.98;8.18;;;;;;;13.52;55.47;99945.97;4986688;28;20715;-75
2021/05/20 06:18:35;;;;;;;12.25;8.60;;;;;;;13.50;55.94;99944.41;5005089;28;20058;-73
2021/05/20 06:21:02;;;;;;;12.70;7.88;;;;;;;13.54;55.35;99940.50;5004699;28;20171;-76
2021/05/20 06:23:29;;;;;;;9.18;6.88;;;;;;;13.60;55.68;99941.78;5003785;28;20069;-75
2021/05/20 06:25:56;;;;;;;10.45;7.70;;;;;;;13.68;54.75;99936.59;5003193;28;20056;-77
2021/05/20 06:28:23;;;;;;;9.40;6.95;;;;;;;13.75;54.75;99940.38;5007555;28;20150;-79
2021/05/20 06:30:49;;;;;;;10.15;7.43;;;;;;;14.21;53.37;99936.16;5009183;28;20072;-81
2021/05/20 06:33:17;;;;;;;10.63;7.68;;;;;;;14.73;51.58;99935.78;5001305;28;20054;-81
2021/05/20 06:35:43;;;;;;;10.27;7.40;;;;;;;14.62;51.74;99947.44;5004575;28;20089;-79
2021/05/20 06:38:12;;;;;;;8.57;6.40;;;;;;;14.42;51.37;99940.44;5008946;28;20074;-81
2021/05/20 06:40:40;;;;;;;8.98;6.55;;;;;;;14.17;51.65;99950.72;5012058;28;20057;-80
2021/05/20 06:43:06;;;;;;;10.20;7.13;;;;;;;14.23;52.70;99949.31;5018296;28;20042;-76
2021/05/20 06:45:33;;;;;;;9.20;6.30;;;;;;;14.37;53.49;99955.97;5009262;28;20056;-78
2021/05/20 06:48:00;;;;;;;8.88;6.97;;;;;;;14.37;52.04;99948.00;5015474;28;20098;-79
2021/05/20 06:50:36;;;;;;;8.88;6.53;;;;;;;14.31;51.43;99958.25;5019962;28;20050;-80
2021/05/20 06:53:04;;;;;;;8.65;6.43;;;;;;;14.32;51.85;99954.59;5013203;28;20046;-80
2021/05/20 06:55:32;;;;;;;6.70;5.65;;;;;;;14.40;51.45;99961.00;5005721;28;20117;-79
2021/05/20 07:00:44;;;;;;;7.82;6.22;;;;;;;14.50;50.85;99961.84;5013539;28;20069;-80
2021/05/20 07:03:18;;;;;;;10.13;6.43;;;;;;;14.58;50.36;99954.00;4989945;28;20042;-80
2021/05/20 07:05:45;;;;;;;8.48;6.05;;;;;;;14.64;49.78;99958.75;5008543;28;20130;-81
2021/05/20 07:08:12;;;;;;;9.57;6.25;;;;;;;14.69;49.40;99952.97;4994549;28;20145;-79
2021/05/20 07:10:39;;;;;;;9.82;5.07;;;;;;;14.77;49.86;99954.94;4987452;28;20054;-82
2021/05/20 07:13:06;;;;;;;7.15;5.07;;;;;;;14.90;49.09;99958.91;4991631;28;20141;-80
2021/05/20 07:15:33;;;;;;;6.28;4.57;;;;;;;15.01;48.66;99959.72;4997148;28;20058;-81
2021/05/20 07:18:00;;;;;;;9.50;5.78;;;;;;;15.04;48.54;99944.31;4996238;28;20105;-80
2021/05/20 07:20:26;;;;;;;9.20;5.60;;;;;;;15.11;48.33;99952.53;5002602;28;20045;-80
2021/05/20 07:22:54;;;;;;;5.60;4.30;;;;;;;15.20;48.20;99949.00;5019640;28;20136;-79
2021/05/20 07:25:21;;;;;;;7.05;5.60;;;;;;;15.29;47.66;99950.75;5018231;28;20074;-81
2021/05/20 07:27:47;;;;;;;6.40;5.28;;;;;;;15.32;47.86;99946.94;5022901;28;20067;-81
2021/05/20 07:30:16;;;;;;;7.63;5.10;;;;;;;15.40;47.53;99944.38;5022953;28;20073;-81
2021/05/20 07:32:42;;;;;;;6.90;5.18;;;;;;;15.49;46.90;99951.47;5022500;28;20041;-81
2021/05/20 07:35:10;;;;;;;10.23;5.20;;;;;;;15.47;47.52;99953.44;5017908;28;20121;-81
2021/05/20 07:37:38;;;;;;;6.57;5.35;;;;;;;15.63;46.44;99965.25;5018111;28;20073;-80
2021/05/20 07:40:06;;;;;;;5.80;4.65;;;;;;;15.63;46.71;99955.44;5012253;28;20057;-77
2021/05/20 07:42:33;;;;;;;6.97;4.50;;;;;;;15.72;46.73;99967.00;5013080;28;20046;-81
2021/05/20 07:45:00;;;;;;;6.35;4.53;;;;;;;15.88;46.11;99968.16;5011735;28;20106;-77
2021/05/20 07:47:28;;;;;;;6.65;4.15;;;;;;;15.97;45.60;99961.91;5018478;28;20046;-75
2021/05/20 07:49:55;;;;;;;4.38;3.72;;;;;;;16.12;45.30;99968.38;5015039;28;20101;-79
2021/05/20 07:52:21;;;;;;;9.32;5.05;;;;;;;16.16;44.52;99951.09;5008914;28;20103;-79
2021/05/20 07:54:48;;;;;;;4.70;3.80;;;;;;;16.19;44.85;99960.63;5022916;28;20038;-81
2021/05/20 07:57:22;;;;;;;7.75;4.97;;;;;;;16.19;44.81;99965.94;5019228;28;20086;-78
2021/05/20 07:59:48;;;;;;;4.97;4.45;;;;;;;16.19;44.17;99945.47;5017853;28;20046;-78
2021/05/20 08:02:21;;;;;;;5.85;4.60;;;;;;;16.20;44.41;99947.13;5021684;28;20154;-77
2021/05/20 08:04:51;;;;;;;5.20;4.10;;;;;;;16.29;44.58;99944.53;5020412;28;20061;-78
2021/05/20 08:07:27;;;;;;;5.50;3.83;;;;;;;16.44;43.73;99948.31;5019216;28;20101;-77
2021/05/20 08:10:05;;;;;;;7.20;4.13;;;;;;;16.63;43.79;99945.41;5014378;28;20043;-75
2021/05/20 08:12:32;;;;;;;4.80;3.65;;;;;;;16.59;43.96;99944.06;5016487;28;20046;-76
2021/05/20 08:14:58;;;;;;;7.20;5.40;;;;;;;16.53;44.08;99950.03;5006043;28;20103;-78
2021/05/20 08:17:25;;;;;;;6.13;3.92;;;;;;;16.61;43.05;99947.41;5003004;28;20141;-74
2021/05/20 08:19:53;;;;;;;8.18;4.82;;;;;;;16.77;43.05;99949.31;5000466;28;20089;-77
2021/05/20 08:22:19;;;;;;;5.93;3.55;;;;;;;16.85;42.39;99945.06;5001024;28;20153;-76
2021/05/20 08:24:45;;;;;;;5.35;3.17;;;;;;;16.96;40.98;99948.28;5001719;28;20116;-78
2021/05/20 08:27:13;;;;;;;6.93;3.72;;;;;;;17.02;40.77;99944.13;4997597;28;20039;-78
2021/05/20 08:29:40;;;;;;;4.63;2.92;;;;;;;17.08;39.88;99945.31;4996685;28;20052;-83
2021/05/20 08:32:07;;;;;;;8.32;3.33;;;;;;;17.26;40.82;99947.88;4998976;28;20050;-76
2021/05/20 08:34:33;;;;;;;5.90;3.45;;;;;;;17.56;40.52;99941.97;5006185;28;20076;-77
2021/05/20 08:37:01;;;;;;;5.72;4.60;;;;;;;17.50;41.39;99942.63;5007513;28;20683;-77
2021/05/20 08:39:28;;;;;;;5.00;4.28;;;;;;;17.23;41.54;99953.53;5005328;28;20089;-75
2021/05/20 08:41:54;;;;;;;5.22;4.00;;;;;;;17.12;41.65;99952.84;5006635;28;20651;-75
2021/05/20 08:44:28;;;;;;;5.88;3.58;;;;;;;17.14;42.36;99953.53;5005262;28;20090;-77
2021/05/20 08:46:57;;;;;;;7.00;4.75;;;;;;;17.13;41.83;99954.50;5004065;28;20046;-78
2021/05/20 08:49:25;;;;;;;6.03;4.30;;;;;;;17.32;41.43;99953.44;5005272;28;20048;-80
2021/05/20 08:51:52;;;;;;;5.15;3.13;;;;;;;17.52;40.43;99947.78;5007099;28;20073;-78
2021/05/20 08:54:21;;;;;;;4.20;2.80;;;;;;;17.90;40.37;99951.72;5003792;28;20045;-77
2021/05/20 08:56:51;;;;;;;5.13;4.10;;;;;;;18.01;39.93;99949.72;5003356;28;20077;-76
2021/05/20 08:59:26;;;;;;;4.68;3.55;;;;;;;17.91;40.72;99956.03;5004561;28;20057;-75
2021/05/20 09:01:52;;;;;;;4.93;3.50;;;;;;;17.68;40.34;99953.16;5002922;28;20045;-77
2021/05/20 09:04:23;;;;;;;3.55;2.47;;;;;;;17.66;39.56;99949.81;5004929;28;20084;-77
2021/05/20 09:06:52;;;;;;;6.57;3.47;;;;;;;17.72;39.99;99951.84;4953298;28;20700;-78
2021/05/20 09:09:21;;;;;;;4.07;3.38;;;;;;;17.62;39.38;99953.81;5005300;28;20125;-80
2021/05/20 09:11:51;;;;;;;5.70;3.85;;;;;;;17.60;39.76;99942.47;5005394;28;20050;-79
2021/05/20 09:14:32;;;;;;;4.75;3.03;;;;;;;17.77;41.25;99949.50;5009186;28;20075;-79
2021/05/20 09:17:08;;;;;;;5.10;3.55;;;;;;;17.44;41.12;99942.44;5007215;28;20555;-79
2021/05/20 09:19:37;;;;;;;5.13;3.40;;;;;;;17.19;41.75;99943.19;5006268;28;20135;-77
2021/05/20 09:22:05;;;;;;;5.30;3.90;;;;;;;17.30;42.14;99936.72;5005154;28;20113;-75
2021/05/20 09:24:47;;;;;;;4.60;3.08;;;;;;;17.35;41.63;99942.41;5004077;28;20053;-77
2021/05/20 09:27:31;;;;;;;8.90;2.88;;;;;;;17.69;40.33;99938.81;5000665;28;20046;-75
2021/05/20 09:30:22;;;;;;;7.47;4.25;;;;;;;17.78;39.65;99926.28;5001841;28;20054;-75
2021/05/20 09:32:52;;;;;;;2.92;2.20;;;;;;;17.99;39.75;99930.31;4908018;29;20056;-75
2021/05/20 09:35:21;;;;;;;3.95;2.17;;;;;;;18.23;38.34;99938.34;4904332;29;20187;-73
2021/05/20 09:37:50;;;;;;;4.25;2.38;;;;;;;17.92;39.21;99932.84;4904314;29;20469;-75
2021/05/20 09:40:18;;;;;;;7.82;3.25;;;;;;;17.73;38.21;99933.97;4905622;29;20135;-74
2021/05/20 09:42:47;;;;;;;2.97;2.00;;;;;;;17.75;37.73;99929.28;4905641;29;20155;-74
2021/05/20 09:45:17;;;;;;;3.40;2.45;;;;;;;18.00;37.77;99934.69;4908987;29;20072;-75
2021/05/20 09:47:44;;;;;;;5.38;3.33;;;;;;;18.11;38.99;99929.00;4910760;29;20062;-76
2021/05/20 09:50:15;;;;;;;5.82;3.20;;;;;;;17.99;39.83;99923.16;4907230;29;20136;-75
2021/05/20 09:52:41;;;;;;;3.97;3.00;;;;;;;17.77;40.47;99924.59;4906671;29;20468;-74
2021/05/20 09:55:24;;;;;;;3.67;2.60;;;;;;;17.76;40.59;99934.47;4905457;29;20052;-74
2021/05/20 09:57:52;;;;;;;3.10;2.50;;;;;;;17.98;37.58;99934.00;4905779;29;20060;-74
2021/05/20 10:00:21;;;;;;;2.72;2.10;;;;;;;17.90;38.50;99932.19;4905131;29;20070;-76
2021/05/20 10:02:49;;;;;;;4.18;2.72;;;;;;;17.92;39.46;99943.53;4903783;29;20052;-74
2021/05/20 10:05:25;;;;;;;3.97;3.05;;;;;;;18.18;38.28;99932.66;4887748;29;20058;-75
2021/05/20 10:07:52;;;;;;;4.95;2.80;;;;;;;18.22;37.93;99927.81;4903413;29;20119;-72
2021/05/20 10:10:19;;;;;;;2.63;2.40;;;;;;;18.53;37.98;99939.47;4976473;28;20050;-73
2021/05/20 10:12:46;;;;;;;4.55;2.80;;;;;;;18.32;38.28;99931.16;4982244;28;20134;-75
2021/05/20 10:15:16;;;;;;;3.30;2.67;;;;;;;18.11;39.14;99948.56;4984098;28;20053;-73
2021/05/20 10:17:46;;;;;;;3.65;2.78;;;;;;;18.30;38.78;99931.31;4985224;28;20058;-73
2021/05/20 10:20:15;;;;;;;5.15;2.33;;;;;;;18.56;38.20;99932.09;4982644;28;20104;-72
2021/05/20 10:22:42;;;;;;;2.60;2.00;;;;;;;18.45;36.41;99934.13;4983576;28;20491;-72
2021/05/20 10:25:10;;;;;;;4.43;2.53;;;;;;;18.49;37.39;99938.16;4984477;28;20132;-74
2021/05/20 10:27:39;;;;;;;5.10;2.28;;;;;;;18.61;35.86;99924.41;4982917;28;20057;-75
2021/05/20 10:30:08;;;;;;;3.28;2.15;;;;;;;18.45;35.75;99930.63;4983543;28;20130;-74
2021/05/20 10:32:37;;;;;;;4.18;2.60;;;;;;;18.60;35.92;99931.59;4989952;28;20041;-74
2021/05/20 10:35:07;;;;;;;2.75;1.95;;;;;;;18.65;35.58;99923.88;5002121;28;20050;-73
2021/05/20 10:37:38;;;;;;;4.22;2.90;;;;;;;18.54;36.57;99921.56;5002881;28;20046;-74
2021/05/20 10:40:11;;;;;;;2.00;1.52;;;;;;;18.54;35.70;99924.25;5001252;28;20054;-73
2021/05/20 10:42:40;;;;;;;2.42;2.15;;;;;;;18.77;36.05;99927.03;5001185;28;20126;-74
2021/05/20 10:45:18;;;;;;;3.17;2.70;;;;;;;18.64;34.92;99921.38;5002455;28;20120;-78
2021/05/20 10:48:22;;;;;;;3.33;1.88;;;;;;;18.33;33.41;99932.81;5001001;28;20061;-73
2021/05/20 10:51:16;;;;;;;3.35;2.00;;;;;;;18.41;34.29;99926.63;5001267;28;20042;-73
2021/05/20 10:54:07;;;;;;;3.42;2.10;;;;;;;18.70;35.37;99924.19;5000774;28;20049;-73
2021/05/20 10:57:03;;;;;;;3.22;2.20;;;;;;;18.81;35.42;99925.69;4999643;28;20268;-73
2021/05/20 10:59:42;;;;;;;;;;;;;;;19.08;33.59;99915.56;5002038;28;20042;-74
2021/05/20 11:02:48;;;;;;;3.45;2.20;;;;;;;18.71;32.97;99914.34;4989030;28;19922;-71
2021/05/20 11:05:55;;;;;;;2.45;1.85;;;;;;;18.44;34.89;99916.41;4881422;29;20052;-74
2021/05/20 11:09:02;;;;;;;3.55;1.52;;;;;;;18.45;34.06;99923.41;4882271;29;20083;-73
2021/05/20 11:12:01;;;;;;;2.70;1.65;;;;;;;18.59;34.61;99923.75;4882370;29;20123;-75
2021/05/20 11:14:38;;;;;;;2.88;1.65;;;;;;;18.70;33.63;99915.34;4882512;29;20049;-73
2021/05/20 11:17:29;;;;;;;3.05;1.90;;;;;;;18.73;34.95;99920.34;4882641;29;20131;-75
2021/05/20 11:20:44;;;;;;;4.20;2.17;;;;;;;18.89;34.94;99912.28;4863896;29;20128;-73
2021/05/20 11:23:30;;;;;;;5.00;2.58;;;;;;;18.70;35.39;99915.34;4882274;29;20544;-73
2021/05/20 11:26:16;;;;;;;3.95;2.53;;;;;;;18.69;34.96;99914.50;4882371;29;20049;-72
2021/05/20 11:28:50;;;;;;;2.38;2.00;;;;;;;18.54;33.55;99924.25;4882593;29;20139;-74
2021/05/20 11:31:18;;;;;;;4.53;2.35;;;;;;;18.67;34.42;99921.03;4883846;29;20057;-72
2021/05/20 11:33:55;;;;;;;4.43;2.97;;;;;;;18.73;34.13;99907.81;4886172;29;20193;-74
2021/05/20 11:36:23;;;;;;;4.80;2.00;;;;;;;18.96;34.82;99917.78;4854840;29;20053;-73
2021/05/20 11:38:59;;;;;;;4.30;2.35;;;;;;;19.26;34.64;99905.41;4884318;29;20426;-74
2021/05/20 11:41:29;;;;;;;2.42;2.20;;;;;;;19.21;34.03;99902.44;4929493;28;20108;-75
2021/05/20 11:44:11;;;;;;;4.80;2.55;;;;;;;19.37;33.46;99896.13;4984949;28;20653;-73
2021/05/20 11:46:39;;;;;;;4.78;2.55;;;;;;;19.35;34.48;99905.38;4984499;28;20070;-74
2021/05/20 11:49:18;;;;;;;5.03;2.50;;;;;;;19.77;33.58;99910.31;4984850;28;20046;-75
2021/05/20 11:51:47;;;;;;;4.15;2.47;;;;;;;19.24;33.37;99904.75;4968088;28;20050;-72
2021/05/20 11:54:16;;;;;;;7.00;2.78;;;;;;;19.06;35.23;99902.34;4985221;28;20070;-74
2021/05/20 11:56:48;;;;;;;3.60;2.80;;;;;;;19.04;34.76;99907.03;4985218;28;20100;-76
2021/05/20 11:59:17;;;;;;;3.35;2.20;;;;;;;19.12;35.00;99897.28;4983650;28;20049;-74
2021/05/20 12:01:45;;;;;;;2.55;2.05;;;;;;;19.18;34.53;99892.09;4997660;28;20045;-75
2021/05/20 12:04:13;;;;;;;3.38;2.42;;;;;;;19.08;34.84;99894.97;4933591;28;20058;-73
2021/05/20 12:06:41;;;;;;;4.03;2.13;;;;;;;18.92;34.98;99897.72;4983685;28;20043;-74
2021/05/20 12:09:12;;;;;;;3.35;1.60;;;;;;;19.06;35.13;99899.66;4985974;28;20051;-74
2021/05/20 12:11:41;;;;;;;5.07;2.53;;;;;;;19.33;34.66;99891.31;4984659;28;20062;-75
2021/05/20 12:14:34;;;;;;;3.25;2.20;;;;;;;19.27;34.83;99896.38;4984824;28;20338;-74
2021/05/20 12:17:11;;;;;;;2.45;2.25;;;;;;;19.26;35.07;99888.50;4987815;28;20050;-74
2021/05/20 12:19:40;;;;;;;2.85;2.00;;;;;;;19.14;34.36;99885.41;5001057;28;20115;-74
2021/05/20 12:22:18;;;;;;;1.55;1.38;;;;;;;19.20;32.70;99890.06;4997853;28;20045;-72
2021/05/20 12:24:46;;;;;;;3.13;1.40;;;;;;;19.17;33.37;99892.25;4996645;28;20638;-75
2021/05/20 12:27:17;;;;;;;1.75;1.30;;;;;;;19.32;33.47;99885.16;5005252;28;20637;-74
2021/05/20 12:29:46;;;;;;;2.03;1.65;;;;;;;19.56;33.32;99884.13;5004443;28;20072;-74
2021/05/20 12:32:30;;;;;;;2.33;1.33;;;;;;;19.59;33.95;99882.94;4997096;28;20046;-74
2021/05/20 12:35:26;;;;;;;1.75;1.65;;;;;;;19.59;32.87;99880.25;5002649;28;20052;-73
2021/05/20 12:38:07;;;;;;;2.08;1.40;;;;;;;19.59;33.49;99883.78;5004839;28;20054;-73
2021/05/20 12:40:36;;;;;;;3.30;1.25;;;;;;;19.72;32.96;99891.22;5005307;28;20568;-75
2021/05/20 12:43:10;;;;;;;1.60;1.50;;;;;;;19.67;32.15;99897.09;5006800;28;20053;-73
2021/05/20 12:45:40;;;;;;;3.28;2.00;;;;;;;19.88;32.85;99900.16;5009875;28;20197;-72
2021/05/20 12:48:19;;;;;;;2.78;1.38;;;;;;;19.80;32.25;99883.13;5009991;28;20335;-74
2021/05/20 12:50:46;;;;;;;2.88;1.98;;;;;;;19.48;33.02;99870.78;5008001;28;20052;-75
2021/05/20 12:53:13;;;;;;;1.95;1.77;;;;;;;19.41;33.63;99881.41;5009270;28;20050;-74
2021/05/20 12:55:41;;;;;;;2.42;1.80;;;;;;;19.26;33.21;99885.84;5008436;28;20056;-75
2021/05/20 12:58:09;;;;;;;2.78;1.85;;;;;;;19.06;34.33;99886.28;5008784;28;20056;-76
2021/05/20 13:00:56;;;;;;;3.80;2.80;;;;;;;19.12;35.12;99886.59;5008516;28;20133;-75
2021/05/20 13:03:24;;;;;;;2.53;2.00;;;;;;;19.18;35.70;99885.91;5008645;28;20050;-76
2021/05/20 13:05:51;;;;;;;3.05;1.70;;;;;;;19.23;35.03;99887.03;5006400;28;20081;-74
2021/05/20 13:08:26;;;;;;;4.07;2.30;;;;;;;19.04;34.87;99884.78;5007061;28;20056;-76
2021/05/20 13:10:52;;;;;;;2.47;2.10;;;;;;;18.94;34.87;99886.84;5006854;28;20050;-75
2021/05/20 13:13:35;;;;;;;4.03;1.85;;;;;;;19.05;34.64;99881.94;5009316;28;20072;-76
2021/05/20 13:16:11;;;;;;;2.63;1.77;;;;;;;19.22;35.01;99890.72;5008014;28;20246;-74
2021/05/20 13:24:18;;;;;;;2.08;1.88;;;;;;;19.42;34.21;99891.09;5010556;28;20850;-74
2021/05/20 13:26:45;;;;;;;3.25;2.17;;;;;;;19.44;34.66;99894.41;5006879;28;20072;-74
2021/05/20 13:29:12;;;;;;;3.80;1.88;;;;;;;19.45;34.60;99890.72;5005864;28;20357;-76
2021/05/20 13:31:42;;;;;;;1.90;1.50;;;;;;;19.54;34.74;99898.72;5010432;28;20509;-76
2021/05/20 13:34:13;;;;;;;2.78;1.92;;;;;;;19.60;34.91;99896.16;5006256;28;20606;-76
2021/05/20 13:36:44;;;;;;;4.07;2.30;;;;;;;19.55;35.30;99900.38;5003451;28;20133;-77
2021/05/20 13:39:11;;;;;;;3.67;2.58;;;;;;;19.43;35.15;99889.25;5003920;28;20057;-79
2021/05/20 13:41:38;;;;;;;3.78;2.58;;;;;;;19.18;35.75;99892.09;5005451;28;20457;-78
2021/05/20 13:44:06;;;;;;;4.68;2.38;;;;;;;19.03;35.94;99877.75;5003992;28;20278;-74
2021/05/20 13:46:32;;;;;;;4.05;2.60;;;;;;;18.98;35.99;99890.84;5002997;28;20055;-73
2021/05/20 13:49:02;;;;;;;3.38;2.08;;;;;;;18.89;36.69;99893.56;5004456;28;20045;-75
2021/05/20 13:51:28;;;;;;;2.83;1.95;;;;;;;18.80;35.93;99889.22;5004362;28;20528;-73
2021/05/20 13:54:00;;;;;;;4.85;2.47;;;;;;;18.72;36.78;99894.59;5004050;28;20432;-76
2021/05/20 13:56:27;;;;;;;4.28;2.20;;;;;;;19.00;36.82;99891.53;5004384;28;20046;-75
2021/05/20 13:58:53;;;;;;;5.32;2.90;;;;;;;19.22;35.40;99885.34;5006293;28;20161;-75